Time;durP1;ratioP1;P1;durP2;ratioP2;P2;SDS_P1;SDS_P2;PMS_P1;PMS_P2;Temp;Humidity;BMP_temperature;BMP_pressure;BME280_temperature;BME280_humidity;BME280_pressure;Samples;Min_cycle;Max_cycle;Signal;HPM_P1;HPM_P2
2021/05/31 00:00:33;;;;;;;;;;;;;;;21.64;58.74;99658.69;2082126;28;19939;-49
2021/05/31 00:01:34;;;;;;;;;;;;;;;21.64;58.87;99653.22;2080647;28;19921;-52
2021/05/31 00:02:34;;;;;;;;;;;;;;;21.64;58.86;99664.19;2082796;28;20291;-52
2021/05/31 00:03:34;;;;;;;;;;;;;;;21.63;58.71;99659.72;2081508;28;19913;-49
2021/05/31 00:04:35;;;;;;;;;;;;;;;21.63;58.86;99665.19;2082341;28;19917;-50
2021/05/31 00:05:35;;;;;;;;;;;;;;;21.64;58.77;99664.19;2080906;28;19970;-49
2021/05/31 00:06:39;;;;;;;;;;;;;;;21.64;58.95;99663.34;2081787;28;19913;-49
2021/05/31 00:07:40;;;;;;;;;;;;;;;21.63;58.67;99662.47;2080181;28;19924;-50
2021/05/31 00:08:40;;;;;;;;;;;;;;;21.63;58.72;99662.47;2078339;28;19927;-51
2021/05/31 00:09:41;;;;;;;;;;;;;;;21.63;58.68;99662.47;2081985;28;19916;-50
2021/05/31 00:10:41;;;;;;;;;;;;;;;21.63;58.79;99667.94;2081696;28;19913;-53
2021/05/31 00:11:42;;;;;;;;;;;;;;;21.64;58.90;99666.09;2079105;28;20964;-49
2021/05/31 00:12:42;;;;;;;;;;;;;;;21.62;58.97;99667.09;2080550;28;19925;-50
2021/05/31 00:13:42;;;;;;;;;;;;;;;21.62;58.87;99660.75;2081426;28;19913;-51
2021/05/31 00:14:43;;;;;;;;;;;;;;;21.63;58.91;99667.94;2081885;28;19917;-51
2021/05/31 00:15:43;;;;;;;;;;;;;;;21.62;58.81;99660.75;2081876;28;19913;-49
2021/05/31 00:16:44;;;;;;;;;;;;;;;21.62;58.69;99660.75;2081729;28;19939;-50
2021/05/31 00:17:44;;;;;;;;;;;;;;;21.62;58.88;99660.75;2081244;28;19959;-49
2021/05/31 00:18:44;;;;;;;;;;;;;;;21.62;58.75;99660.75;2082098;28;19913;-50
2021/05/31 00:19:45;;;;;;;;;;;;;;;21.63;59.01;99662.47;2081811;28;19961;-49
2021/05/31 00:20:45;;;;;;;;;;;;;;;21.62;58.67;99660.75;2081097;28;20463;-49
2021/05/31 00:21:46;;;;;;;;;;;;;;;21.62;58.69;99660.75;2082273;28;19913;-49
2021/05/31 00:22:46;;;;;;;;;;;;;;;21.61;58.81;99657.16;2081586;28;19948;-50
2021/05/31 00:23:47;;;;;;;;;;;;;;;21.62;58.85;99666.25;2082173;28;20641;-52
2021/05/31 00:24:50;;;;;;;;;;;;;;;21.61;58.96;99661.81;2072796;28;19913;-52
2021/05/31 00:25:51;;;;;;;;;;;;;;;21.60;58.87;99660.94;2074201;28;20023;-51
2021/05/31 00:26:51;;;;;;;;;;;;;;;21.61;58.97;99659.06;2081792;28;19917;-49
2021/05/31 00:27:51;;;;;;;;;;;;;;;21.61;58.85;99665.41;2080816;28;19940;-49
2021/05/31 00:28:52;;;;;;;;;;;;;;;21.61;58.89;99664.56;2081855;28;19928;-52
2021/05/31 00:29:52;;;;;;;;;;;;;;;21.61;58.89;99665.41;2081784;28;19931;-49
2021/05/31 00:30:52;;;;;;;;;;;;;;;21.61;59.05;99665.41;2080474;28;20389;-51
2021/05/31 00:31:54;;;;;;;;;;;;;;;21.61;58.83;99667.28;2082010;28;19913;-49
2021/05/31 00:32:54;;;;;;;;;;;;;;;21.61;58.73;99670.88;2081338;28;19913;-50
2021/05/31 00:33:54;;;;;;;;;;;;;;;21.60;58.80;99673.78;2082127;28;19920;-51
2021/05/31 00:34:55;;;;;;;;;;;;;;;21.61;58.84;99672.78;2081435;28;19924;-49
2021/05/31 00:35:55;;;;;;;;;;;;;;;21.60;58.87;99663.66;2076710;28;19935;-50
2021/05/31 00:36:55;;;;;;;;;;;;;;;21.61;58.78;99675.53;2073405;28;19914;-50
2021/05/31 00:37:56;;;;;;;;;;;;;;;21.61;59.08;99670.03;2081274;28;19913;-49
2021/05/31 00:38:56;;;;;;;;;;;;;;;21.60;58.71;99668.31;2081847;28;19960;-50
2021/05/31 00:39:56;;;;;;;;;;;;;;;21.60;58.97;99671.03;2081247;28;19936;-52
2021/05/31 00:40:57;;;;;;;;;;;;;;;21.61;59.06;99675.53;2080868;28;20071;-49
2021/05/31 00:41:57;;;;;;;;;;;;;;;21.59;58.87;99672.09;2079157;28;19916;-49
2021/05/31 00:42:57;;;;;;;;;;;;;;;21.60;59.05;99679.28;2081275;28;19917;-51
2021/05/31 00:43:58;;;;;;;;;;;;;;;21.60;58.88;99671.03;2081869;28;19921;-50
2021/05/31 00:44:58;;;;;;;;;;;;;;;21.59;58.90;99675.69;2081611;28;19920;-50
2021/05/31 00:46:02;;;;;;;;;;;;;;;21.59;58.75;99672.94;2081419;28;19916;-49
2021/05/31 00:47:04;;;;;;;;;;;;;;;21.59;59.03;99666.59;2081976;28;19920;-50
2021/05/31 00:48:04;;;;;;;;;;;;;;;21.59;58.86;99675.69;2081071;28;19913;-49
2021/05/31 00:49:05;;;;;;;;;;;;;;;21.59;58.88;99666.59;2081994;28;19963;-50
2021/05/31 00:50:06;;;;;;;;;;;;;;;21.59;58.87;99669.34;2081007;28;19936;-50
2021/05/31 00:51:07;;;;;;;;;;;;;;;21.59;59.07;99666.59;2081276;28;20023;-52
2021/05/31 00:52:08;;;;;;;;;;;;;;;21.59;58.90;99666.59;2081669;28;19912;-50
2021/05/31 00:53:08;;;;;;;;;;;;;;;;;;2069794;28;19917;-49
2021/05/31 00:54:08;;;;;;;;;;;;;;;21.59;59.22;99672.09;2070208;28;19996;-49
2021/05/31 00:55:09;;;;;;;;;;;;;;;21.58;58.98;99664.88;2081451;28;19917;-51
2021/05/31 00:56:09;;;;;;;;;;;;;;;;;;2081583;28;19913;-50
2021/05/31 00:57:09;;;;;;;;;;;;;;;21.59;58.99;99666.59;2081191;28;19913;-51
2021/05/31 00:58:10;;;;;;;;;;;;;;;21.57;58.97;99666.78;2081664;28;19920;-49
2021/05/31 00:59:11;;;;;;;;;;;;;;;21.57;58.96;99666.78;2080849;28;19956;-49
2021/05/31 01:00:12;;;;;;;;;;;;;;;21.57;59.01;99663.19;2081800;28;19913;-48
2021/05/31 01:01:15;;;;;;;;;;;;;;;21.57;58.98;99660.44;2071953;28;19917;-49
2021/05/31 01:02:15;;;;;;;;;;;;;;;21.57;59.16;99660.44;2072560;28;19990;-49
2021/05/31 01:03:15;;;;;;;;;;;;;;;21.56;59.00;99661.47;2080928;28;19913;-49
2021/05/31 01:04:18;;;;;;;;;;;;;;;21.57;59.07;99658.53;2081639;28;19918;-51
2021/05/31 01:05:18;;;;;;;;;;;;;;;21.57;59.04;99658.53;2081426;28;19947;-48
2021/05/31 01:06:21;;;;;;;;;;;;;;;21.57;59.07;99660.44;2081134;28;19919;-52
2021/05/31 01:07:29;;;;;;;;;;;;;;;21.58;59.31;99662.13;2080843;28;19917;-49
2021/05/31 01:08:44;;;;;;;;;;;;;;;21.56;59.21;99667.81;2081668;28;20338;-49
2021/05/31 01:09:57;;;;;;;;;;;;;;;21.57;59.04;99663.19;2080773;28;20004;-50
2021/05/31 01:11:14;;;;;;;;;;;;;;;21.57;59.00;99663.19;2081643;28;19924;-49
2021/05/31 01:12:19;;;;;;;;;;;;;;;21.57;59.18;99657.69;2076443;28;20340;-49
2021/05/31 01:13:31;;;;;;;;;;;;;;;21.56;59.09;99664.22;2081249;28;20375;-50
2021/05/31 01:14:45;;;;;;;;;;;;;;;21.57;59.21;99664.03;2073821;28;19927;-49
2021/05/31 01:15:56;;;;;;;;;;;;;;;21.56;59.19;99661.47;2078649;28;19924;-50
2021/05/31 01:16:56;;;;;;;;;;;;;;;21.57;58.98;99664.03;2080877;28;19913;-50
2021/05/31 01:17:56;;;;;;;;;;;;;;;21.57;59.24;99660.44;2081887;28;19932;-51
2021/05/31 01:18:59;;;;;;;;;;;;;;;21.57;58.90;99654.94;2081496;28;20378;-49
2021/05/31 01:20:03;;;;;;;;;;;;;;;21.56;59.04;99666.97;2081441;28;20004;-50
2021/05/31 01:21:13;;;;;;;;;;;;;;;21.57;59.28;99668.66;2080373;28;20396;-48
2021/05/31 01:22:13;;;;;;;;;;;;;;;21.56;59.24;99666.97;2080194;28;21060;-51
2021/05/31 01:23:15;;;;;;;;;;;;;;;21.56;59.37;99665.06;2081787;28;19917;-49
2021/05/31 01:24:34;;;;;;;;;;;;;;;21.56;58.99;99664.22;2080903;28;20500;-52
2021/05/31 01:25:37;;;;;;;;;;;;;;;21.56;59.32;99661.47;2076596;28;19913;-49
2021/05/31 01:26:43;;;;;;;;;;;;;;;21.56;59.04;99658.75;2081093;28;19913;-49
2021/05/31 01:28:02;;;;;;;;;;;;;;;21.56;59.06;99661.47;2081061;28;20130;-48
2021/05/31 01:29:05;;;;;;;;;;;;;;;21.55;59.29;99654.28;2077787;28;19952;-49
2021/05/31 01:30:06;;;;;;;;;;;;;;;21.55;59.09;99662.50;2080707;28;19967;-49
2021/05/31 01:31:07;;;;;;;;;;;;;;;21.55;59.26;99659.75;2081732;28;19917;-49
2021/05/31 01:32:09;;;;;;;;;;;;;;;21.55;59.03;99659.75;2080233;28;20294;-48
2021/05/31 01:33:12;;;;;;;;;;;;;;;21.56;59.22;99658.75;2081438;28;19952;-52
2021/05/31 01:34:15;;;;;;;;;;;;;;;21.55;59.26;99659.75;2080938;28;20227;-52
2021/05/31 01:35:17;;;;;;;;;;;;;;;21.55;59.14;99660.59;2081778;28;20243;-49
2021/05/31 01:36:20;;;;;;;;;;;;;;;21.55;59.01;99654.28;2079458;28;19936;-49
2021/05/31 01:37:24;;;;;;;;;;;;;;;21.55;59.19;99657.00;2080927;28;19928;-51
2021/05/31 01:38:25;;;;;;;;;;;;;;;21.54;58.99;99655.31;2081554;28;20003;-49
2021/05/31 01:39:28;;;;;;;;;;;;;;;21.55;59.36;99659.75;2079808;28;19920;-50
2021/05/31 01:40:30;;;;;;;;;;;;;;;21.53;59.34;99657.19;2081890;28;20000;-49
2021/05/31 01:41:31;;;;;;;;;;;;;;;21.54;59.18;99655.31;2081133;28;19913;-51
2021/05/31 01:42:31;;;;;;;;;;;;;;;21.54;59.43;99652.56;2077595;28;19913;-52
2021/05/31 01:43:32;;;;;;;;;;;;;;;21.54;59.16;99652.56;2081280;28;20628;-52
2021/05/31 01:44:32;;;;;;;;;;;;;;;21.54;59.39;99656.16;2080269;28;19929;-50
2021/05/31 01:45:33;;;;;;;;;;;;;;;21.54;59.31;99653.41;2081921;28;19913;-48
2021/05/31 01:46:34;;;;;;;;;;;;;;;21.54;59.04;99658.06;2081087;28;19912;-49
2021/05/31 01:47:34;;;;;;;;;;;;;;;21.54;59.06;99658.91;2081292;28;19999;-51
2021/05/31 01:48:35;;;;;;;;;;;;;;;21.53;59.32;99650.84;2080631;28;19912;-54
2021/05/31 01:49:36;;;;;;;;;;;;;;;21.53;59.29;99653.59;2080653;28;19920;-49
2021/05/31 01:50:38;;;;;;;;;;;;;;;21.53;59.05;99656.31;2078419;28;20582;-52
2021/05/31 01:51:38;;;;;;;;;;;;;;;21.54;59.32;99652.56;2078131;28;19959;-51
2021/05/31 01:52:40;;;;;;;;;;;;;;;21.54;59.25;99658.06;2081443;28;19913;-49
2021/05/31 01:53:40;;;;;;;;;;;;;;;21.53;59.15;99661.81;2080315;28;19961;-51
2021/05/31 01:54:41;;;;;;;;;;;;;;;21.53;59.34;99656.31;2081444;28;19924;-49
2021/05/31 01:55:42;;;;;;;;;;;;;;;21.53;59.28;99653.59;2081046;28;19966;-51
2021/05/31 01:56:44;;;;;;;;;;;;;;;21.53;59.33;99659.06;2081501;28;19963;-49
2021/05/31 01:57:46;;;;;;;;;;;;;;;21.54;59.33;99652.56;2079976;28;19917;-52
2021/05/31 01:58:47;;;;;;;;;;;;;;;21.52;59.20;99657.38;2080756;28;19946;-50
2021/05/31 01:59:48;;;;;;;;;;;;;;;21.53;59.37;99656.31;2080635;28;19917;-49
2021/05/31 02:00:48;;;;;;;;;;;;;;;21.52;59.34;99655.47;2081186;28;20395;-54
2021/05/31 02:01:49;;;;;;;;;;;;;;;21.51;59.30;99659.28;2081361;28;19912;-49
2021/05/31 02:02:50;;;;;;;;;;;;;;;21.53;59.35;99656.31;2080395;28;19959;-49
2021/05/31 02:03:50;;;;;;;;;;;;;;;21.53;59.29;99661.81;2080619;28;20282;-52
2021/05/31 02:04:51;;;;;;;;;;;;;;;21.52;59.37;99654.63;2080903;28;19917;-52
2021/05/31 02:05:51;;;;;;;;;;;;;;;21.51;59.29;99655.66;2079441;28;19963;-49
2021/05/31 02:06:52;;;;;;;;;;;;;;;21.51;59.17;99647.41;2081371;28;19917;-49
2021/05/31 02:07:52;;;;;;;;;;;;;;;21.51;59.37;99647.41;2081123;28;19982;-49
2021/05/31 02:08:53;;;;;;;;;;;;;;;21.52;59.29;99660.13;2080621;28;19913;-49
2021/05/31 02:09:53;;;;;;;;;;;;;;;21.52;59.52;99649.16;2076275;28;19917;-52
2021/05/31 02:10:54;;;;;;;;;;;;;;;21.51;59.30;99652.91;2077468;28;19943;-49
2021/05/31 02:12:04;;;;;;;;;;;;;;;21.50;59.22;99654.78;2081059;28;20624;-49
2021/05/31 02:13:04;;;;;;;;;;;;;;;21.51;59.61;99655.66;2078070;28;19942;-49
2021/05/31 02:14:07;;;;;;;;;;;;;;;21.50;59.40;99653.94;2080740;28;19928;-49
2021/05/31 02:15:09;;;;;;;;;;;;;;;21.49;59.33;99650.34;2081181;28;19924;-49
2021/05/31 02:16:23;;;;;;;;;;;;;;;21.50;59.40;99651.22;2079878;28;20023;-50
2021/05/31 02:17:29;;;;;;;;;;;;;;;21.50;59.52;99651.22;2080397;28;19917;-51
2021/05/31 02:18:35;;;;;;;;;;;;;;;21.50;59.37;99652.06;2080871;28;19921;-49
2021/05/31 02:19:37;;;;;;;;;;;;;;;21.49;59.23;99650.34;2081186;28;19913;-52
2021/05/31 02:20:38;;;;;;;;;;;;;;;21.49;59.35;99655.84;2080744;28;19952;-49
2021/05/31 02:21:39;;;;;;;;;;;;;;;21.50;59.31;99656.69;2081493;28;19913;-52
2021/05/31 02:22:49;;;;;;;;;;;;;;;21.49;59.36;99653.09;2079132;28;19959;-50
2021/05/31 02:23:50;;;;;;;;;;;;;;;21.49;59.61;99649.50;2080740;28;19909;-50
2021/05/31 02:24:52;;;;;;;;;;;;;;;21.49;59.64;99655.84;2081514;28;19913;-49
2021/05/31 02:25:53;;;;;;;;;;;;;;;21.49;59.51;99649.50;2079945;28;19951;-51
2021/05/31 02:26:54;;;;;;;;;;;;;;;21.50;59.38;99656.69;2077825;28;20638;-49
2021/05/31 02:27:55;;;;;;;;;;;;;;;21.49;59.62;99655.00;2079804;28;20067;-49
2021/05/31 02:28:56;;;;;;;;;;;;;;;21.48;59.34;99654.13;2080666;28;19913;-49
2021/05/31 02:29:59;;;;;;;;;;;;;;;21.49;59.40;99649.50;2080022;28;19925;-51
2021/05/31 02:31:02;;;;;;;;;;;;;;;21.49;59.60;99644.03;2080859;28;19917;-50
2021/05/31 02:32:04;;;;;;;;;;;;;;;21.47;59.53;99646.09;2081251;28;19917;-49
2021/05/31 02:33:05;;;;;;;;;;;;;;;21.49;59.51;99649.50;2081638;28;19932;-50
2021/05/31 02:34:07;;;;;;;;;;;;;;;21.49;59.48;99649.50;2079893;28;19919;-51
2021/05/31 02:35:10;;;;;;;;;;;;;;;21.49;59.38;99644.03;2081433;28;19921;-50
2021/05/31 02:36:11;;;;;;;;;;;;;;;21.49;59.67;99653.09;2081064;28;19917;-50
2021/05/31 02:37:12;;;;;;;;;;;;;;;21.49;59.67;99655.00;2079691;28;19913;-49
2021/05/31 02:38:12;;;;;;;;;;;;;;;21.49;59.35;99649.50;2081264;28;19917;-49
2021/05/31 02:39:13;;;;;;;;;;;;;;;21.50;59.41;99662.19;2081144;28;19917;-50
2021/05/31 02:40:13;;;;;;;;;;;;;;;21.49;59.68;99652.25;2079745;28;20060;-51
2021/05/31 02:41:14;;;;;;;;;;;;;;;21.49;59.43;99657.72;2080299;28;20670;-52
2021/05/31 02:42:14;;;;;;;;;;;;;;;21.47;59.48;99651.56;2080447;28;20318;-48
2021/05/31 02:43:15;;;;;;;;;;;;;;;21.47;59.58;99648.81;2077989;28;20008;-51
2021/05/31 02:44:15;;;;;;;;;;;;;;;21.47;59.65;99651.56;2080285;28;19921;-49
2021/05/31 02:45:17;;;;;;;;;;;;;;;21.48;59.61;99645.88;2081366;28;19936;-52
2021/05/31 02:46:18;;;;;;;;;;;;;;;21.47;59.54;99646.09;2080950;28;20250;-49
2021/05/31 02:47:18;;;;;;;;;;;;;;;21.47;59.71;99646.09;2080637;28;19919;-49
2021/05/31 02:48:18;;;;;;;;;;;;;;;21.47;59.58;99649.66;2080617;28;19967;-50
2021/05/31 02:49:18;;;;;;;;;;;;;;;21.46;59.51;99647.97;2080609;28;20244;-51
2021/05/31 02:50:19;;;;;;;;;;;;;;;21.49;59.67;99649.50;2080574;28;19916;-49
2021/05/31 02:51:19;;;;;;;;;;;;;;;21.47;59.55;99657.06;2080496;28;20622;-50
2021/05/31 02:52:20;;;;;;;;;;;;;;;21.46;59.43;99656.19;2080971;28;19917;-50
2021/05/31 02:53:20;;;;;;;;;;;;;;;21.45;59.74;99648.13;2081054;28;19919;-48
2021/05/31 02:54:20;;;;;;;;;;;;;;;21.45;59.55;99648.13;2080407;28;19919;-49
2021/05/31 02:55:24;;;;;;;;;;;;;;;21.46;59.45;99656.19;2080685;28;19924;-48
2021/05/31 02:56:25;;;;;;;;;;;;;;;21.45;59.66;99659.97;2080886;28;19926;-50
2021/05/31 02:57:26;;;;;;;;;;;;;;;21.45;59.58;99650.88;2080484;28;19944;-49
2021/05/31 02:58:26;;;;;;;;;;;;;;;21.46;59.89;99660.81;2080394;28;19952;-50
2021/05/31 02:59:26;;;;;;;;;;;;;;;21.45;59.87;99650.88;2079955;28;19913;-49
2021/05/31 03:00:27;;;;;;;;;;;;;;;21.45;59.44;99657.22;2081265;28;19919;-52
2021/05/31 03:01:28;;;;;;;;;;;;;;;21.45;59.42;99649.00;2080788;28;19913;-49
2021/05/31 03:02:28;;;;;;;;;;;;;;;21.46;59.59;99653.47;2080985;28;19955;-50
2021/05/31 03:03:28;;;;;;;;;;;;;;;21.46;59.62;99645.22;2080983;28;19991;-52
2021/05/31 03:04:29;;;;;;;;;;;;;;;21.45;59.59;99649.00;2080797;28;19924;-49
2021/05/31 03:05:29;;;;;;;;;;;;;;;21.45;59.61;99650.88;2081219;28;20118;-49
2021/05/31 03:06:30;;;;;;;;;;;;;;;21.45;59.53;99653.63;2079836;28;20397;-50
2021/05/31 03:07:30;;;;;;;;;;;;;;;21.45;59.93;99648.13;2081312;28;19928;-49
2021/05/31 03:08:30;;;;;;;;;;;;;;;21.43;59.77;99652.94;2080949;28;19913;-50
2021/05/31 03:09:30;;;;;;;;;;;;;;;21.43;59.70;99644.72;2078492;28;19917;-50
2021/05/31 03:10:31;;;;;;;;;;;;;;;21.44;59.85;99651.94;2078385;28;19923;-52
2021/05/31 03:11:32;;;;;;;;;;;;;;;21.45;59.76;99650.88;2079435;28;19917;-50
2021/05/31 03:12:32;;;;;;;;;;;;;;;21.43;59.69;99655.69;2081357;28;19923;-51
2021/05/31 03:13:33;;;;;;;;;;;;;;;21.43;59.58;99655.69;2077623;28;20568;-51
2021/05/31 03:14:33;;;;;;;;;;;;;;;21.44;59.44;99651.94;2080323;28;19952;-50
2021/05/31 03:15:34;;;;;;;;;;;;;;;21.44;59.77;99651.94;2081795;28;20335;-50
2021/05/31 03:16:34;;;;;;;;;;;;;;;21.44;59.66;99654.66;2082551;28;19912;-51
2021/05/31 03:17:34;;;;;;;;;;;;;;;21.43;59.99;99653.78;2071405;28;19913;-48
2021/05/31 03:18:34;;;;;;;;;;;;;;;21.43;59.62;99650.19;2071916;28;19939;-49
2021/05/31 03:19:35;;;;;;;;;;;;;;;21.43;59.83;99652.94;2074765;28;20715;-50
2021/05/31 03:20:35;;;;;;;;;;;;;;;21.44;59.61;99654.66;2080562;28;20071;-48
2021/05/31 03:21:35;;;;;;;;;;;;;;;21.44;59.73;99651.94;2082689;28;19991;-49
2021/05/31 03:22:36;;;;;;;;;;;;;;;21.42;59.87;99652.09;2081883;28;19960;-49
2021/05/31 03:23:36;;;;;;;;;;;;;;;21.44;59.78;99651.94;2081498;28;19986;-50
2021/05/31 03:24:37;;;;;;;;;;;;;;;21.43;59.73;99653.78;2082747;28;19932;-49
2021/05/31 03:25:37;;;;;;;;;;;;;;;21.43;59.68;99659.28;2082042;28;19917;-49
2021/05/31 03:26:37;;;;;;;;;;;;;;;21.43;59.82;99656.53;2076637;28;20455;-50
2021/05/31 03:27:39;;;;;;;;;;;;;;;21.43;59.67;99655.69;2080727;28;20367;-49
2021/05/31 03:28:39;;;;;;;;;;;;;;;21.42;59.78;99654.84;2081388;28;19945;-48
2021/05/31 03:29:40;;;;;;;;;;;;;;;21.42;59.72;99657.56;2082571;28;19939;-51
2021/05/31 03:30:40;;;;;;;;;;;;;;;21.43;59.63;99651.03;2081125;28;19909;-50
2021/05/31 03:31:40;;;;;;;;;;;;;;;21.43;59.93;99661.16;2082829;28;20518;-50
2021/05/31 03:32:41;;;;;;;;;;;;;;;21.43;59.64;99661.16;2081823;28;19917;-49
2021/05/31 03:33:41;;;;;;;;;;;;;;;21.43;59.90;99655.69;2081982;28;20011;-53
2021/05/31 03:34:41;;;;;;;;;;;;;;;21.43;59.84;99663.91;2082510;28;19917;-50
2021/05/31 03:35:42;;;;;;;;;;;;;;;21.43;59.77;99663.91;2082255;28;19921;-49
2021/05/31 03:36:42;;;;;;;;;;;;;;;21.42;59.98;99662.22;2081015;28;20369;-48
2021/05/31 03:37:43;;;;;;;;;;;;;;;21.43;59.56;99661.16;2081751;28;19964;-49
2021/05/31 03:38:43;;;;;;;;;;;;;;;21.43;59.80;99655.69;2082423;28;19923;-49
2021/05/31 03:39:45;;;;;;;;;;;;;;;21.43;59.68;99661.16;2081724;28;19920;-49
2021/05/31 03:40:45;;;;;;;;;;;;;;;21.42;59.76;99659.47;2082339;28;19913;-49
2021/05/31 03:41:45;;;;;;;;;;;;;;;21.42;59.82;99656.72;2082017;28;19961;-51
2021/05/31 03:42:46;;;;;;;;;;;;;;;21.42;59.64;99659.47;2081741;28;20012;-51
2021/05/31 03:43:46;;;;;;;;;;;;;;;21.43;59.61;99655.69;2079237;28;19928;-49
2021/05/31 03:44:46;;;;;;;;;;;;;;;21.43;59.59;99661.16;2082102;28;19920;-49
2021/05/31 03:45:46;;;;;;;;;;;;;;;21.42;59.69;99659.47;2081603;28;19935;-50
2021/05/31 03:46:47;;;;;;;;;;;;;;;21.42;59.85;99660.31;2081806;28;19912;-49
2021/05/31 03:47:48;;;;;;;;;;;;;;;21.42;59.82;99657.56;2081966;28;19919;-48
2021/05/31 03:48:48;;;;;;;;;;;;;;;21.43;59.83;99662.00;2078322;28;19909;-54
2021/05/31 03:49:49;;;;;;;;;;;;;;;21.42;59.94;99660.31;2081493;28;19913;-49
2021/05/31 03:50:49;;;;;;;;;;;;;;;21.42;59.78;99659.47;2082611;28;19909;-49
2021/05/31 03:51:49;;;;;;;;;;;;;;;21.42;59.64;99665.81;2081685;28;19972;-50
2021/05/31 03:52:50;;;;;;;;;;;;;;;21.40;59.77;99657.75;2082442;28;20003;-49
2021/05/31 03:53:51;;;;;;;;;;;;;;;21.41;59.97;99658.59;2081251;28;19920;-51
2021/05/31 03:54:51;;;;;;;;;;;;;;;21.41;60.05;99658.59;2081560;28;19953;-50
2021/05/31 03:55:51;;;;;;;;;;;;;;;21.42;59.90;99659.47;2082279;28;19913;-51
2021/05/31 03:56:52;;;;;;;;;;;;;;;21.41;59.86;99658.59;2080969;28;19921;-51
2021/05/31 03:57:52;;;;;;;;;;;;;;;21.41;59.86;99658.59;2082098;28;19921;-51
2021/05/31 03:58:53;;;;;;;;;;;;;;;21.40;60.00;99655.00;2081769;28;19913;-50
2021/05/31 03:59:53;;;;;;;;;;;;;;;21.40;59.87;99657.75;2081262;28;19920;-49
2021/05/31 04:00:54;;;;;;;;;;;;;;;21.40;59.82;99654.16;2082672;28;19913;-49
2021/05/31 04:01:54;;;;;;;;;;;;;;;21.42;59.76;99659.47;2081715;28;20475;-52
2021/05/31 04:02:55;;;;;;;;;;;;;;;21.40;59.82;99660.47;2082767;28;19925;-52
2021/05/31 04:03:57;;;;;;;;;;;;;;;21.40;60.06;99660.47;2081482;28;20187;-49
2021/05/31 04:04:57;;;;;;;;;;;;;;;21.40;59.98;99663.22;2081636;28;19921;-50
2021/05/31 04:12:26;;;;;;;;;;;;;;;21.40;59.80;99671.44;2081059;28;19917;-50
2021/05/31 04:13:26;;;;;;;;;;;;;;;21.39;59.82;99672.50;2081406;28;20311;-51
2021/05/31 04:14:27;;;;;;;;;;;;;;;21.38;60.06;99668.00;2078990;28;19913;-49
2021/05/31 04:15:27;;;;;;;;;;;;;;;21.40;59.96;99667.84;2080440;28;19917;-53
2021/05/31 04:16:27;;;;;;;;;;;;;;;21.39;59.85;99672.50;2082466;28;20011;-49
2021/05/31 04:17:28;;;;;;;;;;;;;;;21.39;59.86;99671.63;2081796;28;19913;-48
2021/05/31 04:18:28;;;;;;;;;;;;;;;21.38;59.91;99665.25;2081495;28;19916;-49
2021/05/31 04:19:28;;;;;;;;;;;;;;;21.38;59.95;99670.72;2082658;28;20201;-51
2021/05/31 04:20:28;;;;;;;;;;;;;;;21.39;60.05;99671.63;2080629;28;19913;-50
2021/05/31 04:21:29;;;;;;;;;;;;;;;21.39;60.30;99671.63;2081735;28;19920;-50
2021/05/31 04:22:30;;;;;;;;;;;;;;;21.38;60.17;99669.88;2081767;28;20294;-49
2021/05/31 04:23:30;;;;;;;;;;;;;;;21.38;60.26;99670.72;2081715;28;20243;-52
2021/05/31 04:24:30;;;;;;;;;;;;;;;21.38;60.21;99662.50;2082471;28;19919;-49
2021/05/31 04:25:31;;;;;;;;;;;;;;;21.38;60.07;99669.88;2080047;28;19921;-49
2021/05/31 04:26:33;;;;;;;;;;;;;;;21.37;60.15;99674.50;2081892;28;19917;-52
2021/05/31 04:27:33;;;;;;;;;;;;;;;21.37;60.14;99671.78;2079195;28;19949;-49
2021/05/31 04:28:33;;;;;;;;;;;;;;;21.37;60.21;99669.03;2081386;28;19991;-52
2021/05/31 04:29:33;;;;;;;;;;;;;;;21.36;60.28;99672.81;2081335;28;20333;-50
2021/05/31 04:30:34;;;;;;;;;;;;;;;21.36;60.31;99672.81;2081463;28;19917;-51
2021/05/31 04:31:35;;;;;;;;;;;;;;;21.37;60.15;99669.03;2082030;28;20439;-52
2021/05/31 04:32:35;;;;;;;;;;;;;;;21.36;60.18;99667.34;2080294;28;19919;-49
2021/05/31 04:33:35;;;;;;;;;;;;;;;21.36;60.09;99672.81;2081590;28;19967;-52
2021/05/31 04:34:36;;;;;;;;;;;;;;;21.36;60.04;99664.59;2081444;28;20586;-53
2021/05/31 04:35:36;;;;;;;;;;;;;;;21.36;60.08;99667.34;2081281;28;19913;-51
2021/05/31 04:36:36;;;;;;;;;;;;;;;21.34;59.92;99661.16;2082034;28;19913;-49
2021/05/31 04:37:37;;;;;;;;;;;;;;;21.36;60.21;99663.72;2080821;28;19913;-49
2021/05/31 04:38:37;;;;;;;;;;;;;;;21.35;60.08;99664.75;2080924;28;19955;-53
2021/05/31 04:39:37;;;;;;;;;;;;;;;21.35;60.32;99664.75;2080615;28;19924;-51
2021/05/31 04:40:38;;;;;;;;;;;;;;;21.35;60.41;99671.09;2081683;28;20470;-50
2021/05/31 04:41:39;;;;;;;;;;;;;;;21.35;60.26;99668.34;2081732;28;19996;-48
2021/05/31 04:42:39;;;;;;;;;;;;;;;21.35;60.25;99671.09;2080838;28;20333;-49
2021/05/31 04:43:39;;;;;;;;;;;;;;;21.34;60.39;99672.13;2081603;28;20394;-51
2021/05/31 04:44:40;;;;;;;;;;;;;;;21.34;60.37;99674.88;2078195;28;20561;-50
2021/05/31 04:45:40;;;;;;;;;;;;;;;21.34;60.10;99669.38;2081413;28;19917;-50
2021/05/31 04:46:40;;;;;;;;;;;;;;;21.34;60.29;99672.13;2081971;28;20240;-53
2021/05/31 04:47:40;;;;;;;;;;;;;;;21.34;60.09;99671.28;2071981;28;19924;-51
2021/05/31 04:48:41;;;;;;;;;;;;;;;21.35;60.24;99675.72;2072865;28;19924;-49
2021/05/31 04:49:41;;;;;;;;;;;;;;;21.33;60.11;99673.13;2079304;28;19975;-51
2021/05/31 04:50:41;;;;;;;;;;;;;;;21.33;60.32;99662.19;2081179;28;20374;-49
2021/05/31 04:51:43;;;;;;;;;;;;;;;21.37;60.29;99662.69;2081367;28;19931;-48
2021/05/31 04:52:43;;;;;;;;;;;;;;;21.35;60.09;99664.75;2081992;28;19997;-48
2021/05/31 04:53:44;;;;;;;;;;;;;;;21.36;60.20;99666.44;2082051;28;20270;-50
2021/05/31 04:54:47;;;;;;;;;;;;;;;21.37;60.35;99666.28;2081285;28;19912;-47
2021/05/31 04:55:47;;;;;;;;;;;;;;;21.37;60.19;99669.03;2081489;28;19912;-48
2021/05/31 04:56:48;;;;;;;;;;;;;;;21.36;60.05;99664.59;2080496;28;20012;-46
2021/05/31 04:57:48;;;;;;;;;;;;;;;21.37;60.13;99674.50;2080968;28;19931;-48
2021/05/31 04:58:48;;;;;;;;;;;;;;;21.38;60.14;99675.38;2081571;28;20016;-47
2021/05/31 04:59:49;;;;;;;;;;;;;;;21.38;60.11;99669.88;2081762;28;20028;-47
2021/05/31 05:00:49;;;;;;;;;;;;;;;21.37;60.04;99677.25;2081177;28;20326;-47
2021/05/31 05:01:49;;;;;;;;;;;;;;;21.38;60.10;99670.72;2078610;28;19943;-47
2021/05/31 05:02:50;;;;;;;;;;;;;;;21.38;60.08;99675.38;2081527;28;20039;-48
2021/05/31 05:03:50;;;;;;;;;;;;;;;21.38;59.87;99680.84;2081194;28;19917;-47
2021/05/31 05:04:50;;;;;;;;;;;;;;;21.38;59.92;99681.69;2080533;28;19912;-46
2021/05/31 05:05:51;;;;;;;;;;;;;;;21.37;60.01;99685.47;2081649;28;19951;-47
2021/05/31 05:06:51;;;;;;;;;;;;;;;21.37;59.81;99685.47;2080495;28;19959;-48
2021/05/31 05:07:51;;;;;;;;;;;;;;;21.38;59.89;99687.19;2081245;28;20382;-46
2021/05/31 05:08:54;;;;;;;;;;;;;;;21.38;60.14;99689.91;2081480;28;19917;-50
2021/05/31 05:09:54;;;;;;;;;;;;;;;21.38;59.84;99686.34;2080824;28;19913;-48
2021/05/31 05:10:54;;;;;;;;;;;;;;;21.37;59.97;99690.97;2081359;28;19924;-50
2021/05/31 05:11:55;;;;;;;;;;;;;;;21.38;59.94;99689.91;2080229;28;19909;-47
2021/05/31 05:12:55;;;;;;;;;;;;;;;21.38;59.78;99687.19;2081215;28;19975;-49
2021/05/31 05:13:55;;;;;;;;;;;;;;;21.38;59.76;99691.81;2080789;28;19913;-48
2021/05/31 05:14:55;;;;;;;;;;;;;;;21.38;59.95;99686.34;2077369;28;19963;-46
2021/05/31 05:15:56;;;;;;;;;;;;;;;21.37;60.14;99688.22;2081434;28;19921;-48
2021/05/31 05:16:56;;;;;;;;;;;;;;;21.38;60.12;99691.81;2080564;28;19923;-49
2021/05/31 05:17:57;;;;;;;;;;;;;;;21.37;59.73;99690.97;2080954;28;19920;-49
2021/05/31 05:18:57;;;;;;;;;;;;;;;21.38;59.80;99692.66;2076674;28;19914;-49
2021/05/31 05:19:57;;;;;;;;;;;;;;;21.38;59.84;99691.81;2080891;28;19949;-48
2021/05/31 05:20:59;;;;;;;;;;;;;;;21.37;59.96;99696.44;2076771;28;20235;-50
2021/05/31 05:21:59;;;;;;;;;;;;;;;21.37;59.75;99696.44;2080183;28;20398;-46
2021/05/31 05:23:00;;;;;;;;;;;;;;;21.37;59.76;99690.97;2081342;28;19913;-46
2021/05/31 05:24:00;;;;;;;;;;;;;;;21.37;59.71;99690.97;2081321;28;19913;-47
2021/05/31 05:25:01;;;;;;;;;;;;;;;21.37;59.56;99690.97;2081177;28;19996;-48
2021/05/31 05:26:01;;;;;;;;;;;;;;;21.36;59.93;99686.53;2080300;28;19917;-47